sensor_id;sensor_type;location;lat;lon;timestamp;pressure;altitude;pressure_sealevel;temperature;humidity
52319;BME280;38258;51.148;14.068;2023-04-29T00:00:01;97783.94;;;8.69;100.00
52319;BME280;38258;51.148;14.068;2023-04-29T00:02:37;97774.31;;;8.71;100.00
52319;BME280;38258;51.148;14.068;2023-04-29T00:05:04;97769.22;;;8.66;100.00
52319;BME280;38258;51.148;14.068;2023-04-29T00:07:31;97769.22;;;8.66;100.00
52319;BME280;38258;51.148;14.068;2023-04-29T00:09:58;97769.22;;;8.66;100.00
52319;BME280;38258;51.148;14.068;2023-04-29T00:12:24;97786.41;;;8.73;100.00
52319;BME280;38258;51.148;14.068;2023-04-29T00:14:52;97782.09;;;8.72;100.00
52319;BME280;38258;51.148;14.068;2023-04-29T00:17:20;97783.00;;;8.71;100.00
52319;BME280;38258;51.148;14.068;2023-04-29T00:19:47;97779.72;;;8.65;100.00
52319;BME280;38258;51.148;14.068;2023-04-29T00:22:15;97778.75;;;8.67;100.00
52319;BME280;38258;51.148;14.068;2023-04-29T00:24:42;97771.66;;;8.72;100.00
52319;BME280;38258;51.148;14.068;2023-04-29T00:27:08;97783.81;;;8.73;100.00
52319;BME280;38258;51.148;14.068;2023-04-29T00:29:36;97788.25;;;8.70;100.00
52319;BME280;38258;51.148;14.068;2023-04-29T00:32:03;97780.09;;;8.81;100.00
52319;BME280;38258;51.148;14.068;2023-04-29T00:34:31;97782.00;;;8.75;100.00
52319;BME280;38258;51.148;14.068;2023-04-29T00:36:58;97770.78;;;8.73;100.00
52319;BME280;38258;51.148;14.068;2023-04-29T00:39:25;97770.63;;;8.78;100.00
52319;BME280;38258;51.148;14.068;2023-04-29T00:41:51;97767.59;;;8.63;100.00
52319;BME280;38258;51.148;14.068;2023-04-29T00:44:19;97769.88;;;8.74;100.00
52319;BME280;38258;51.148;14.068;2023-04-29T00:46:46;97771.56;;;8.75;100.00
52319;BME280;38258;51.148;14.068;2023-04-29T00:49:13;97757.09;;;8.65;100.00
52319;BME280;38258;51.148;14.068;2023-04-29T00:51:43;97775.06;;;8.74;100.00
52319;BME280;38258;51.148;14.068;2023-04-29T00:54:10;97766.34;;;8.75;100.00
52319;BME280;38258;51.148;14.068;2023-04-29T00:56:39;97759.47;;;8.73;100.00
52319;BME280;38258;51.148;14.068;2023-04-29T00:59:08;97754.84;;;8.83;100.00
52319;BME280;38258;51.148;14.068;2023-04-29T01:01:37;97748.63;;;8.58;100.00
52319;BME280;38258;51.148;14.068;2023-04-29T01:04:04;97763.09;;;8.69;100.00
52319;BME280;38258;51.148;14.068;2023-04-29T01:06:40;97759.44;;;8.74;100.00
52319;BME280;38258;51.148;14.068;2023-04-29T01:09:28;97750.09;;;8.67;100.00
52319;BME280;38258;51.148;14.068;2023-04-29T01:12:07;97756.78;;;8.76;100.00
52319;BME280;38258;51.148;14.068;2023-04-29T01:14:37;97757.59;;;8.78;100.00
52319;BME280;38258;51.148;14.068;2023-04-29T01:17:09;97757.72;;;8.73;100.00
52319;BME280;38258;51.148;14.068;2023-04-29T01:19:41;97754.97;;;8.78;100.00
52319;BME280;38258;51.148;14.068;2023-04-29T01:22:10;97758.50;;;8.77;100.00
52319;BME280;38258;51.148;14.068;2023-04-29T01:24:38;97751.47;;;8.79;100.00
52319;BME280;38258;51.148;14.068;2023-04-29T01:27:15;97747.19;;;8.76;100.00
52319;BME280;38258;51.148;14.068;2023-04-29T01:29:54;97756.06;;;8.71;100.00
52319;BME280;38258;51.148;14.068;2023-04-29T01:32:34;97759.53;;;8.71;100.00
52319;BME280;38258;51.148;14.068;2023-04-29T01:35:10;97764.25;;;8.58;100.00
52319;BME280;38258;51.148;14.068;2023-04-29T01:37:48;97764.75;;;8.71;100.00
52319;BME280;38258;51.148;14.068;2023-04-29T01:40:25;97762.16;;;8.71;100.00
52319;BME280;38258;51.148;14.068;2023-04-29T01:43:05;97756.94;;;8.71;100.00
52319;BME280;38258;51.148;14.068;2023-04-29T01:45:38;97757.75;;;8.72;100.00
52319;BME280;38258;51.148;14.068;2023-04-29T01:48:07;97757.88;;;8.69;100.00
52319;BME280;38258;51.148;14.068;2023-04-29T01:50:34;97758.06;;;8.62;100.00
52319;BME280;38258;51.148;14.068;2023-04-29T01:53:09;97742.38;;;8.64;100.00
52319;BME280;38258;51.148;14.068;2023-04-29T01:55:37;97759.72;;;8.65;100.00
52319;BME280;38258;51.148;14.068;2023-04-29T01:58:14;97728.97;;;8.46;100.00
52319;BME280;38258;51.148;14.068;2023-04-29T02:00:59;97758.56;;;8.74;100.00
52319;BME280;38258;51.148;14.068;2023-04-29T02:03:29;97764.63;;;8.76;100.00
52319;BME280;38258;51.148;14.068;2023-04-29T02:05:57;97767.16;;;8.77;100.00
52319;BME280;38258;51.148;14.068;2023-04-29T02:08:24;97763.22;;;8.93;100.00
52319;BME280;38258;51.148;14.068;2023-04-29T02:10:55;97773.16;;;8.80;100.00
52319;BME280;38258;51.148;14.068;2023-04-29T02:13:36;97771.53;;;8.77;100.00
52319;BME280;38258;51.148;14.068;2023-04-29T02:16:07;97778.38;;;8.80;100.00
52319;BME280;38258;51.148;14.068;2023-04-29T02:18:35;97786.28;;;8.78;100.00
52319;BME280;38258;51.148;14.068;2023-04-29T02:21:03;97785.13;;;8.87;100.00
52319;BME280;38258;51.148;14.068;2023-04-29T02:23:33;97785.59;;;9.00;100.00
52319;BME280;38258;51.148;14.068;2023-04-29T02:26:01;97799.69;;;8.94;100.00
52319;BME280;38258;51.148;14.068;2023-04-29T02:28:29;97801.63;;;8.87;100.00
52319;BME280;38258;51.148;14.068;2023-04-29T02:30:56;97819.84;;;8.89;100.00
52319;BME280;38258;51.148;14.068;2023-04-29T02:33:23;97804.59;;;8.75;100.00
52319;BME280;38258;51.148;14.068;2023-04-29T02:35:50;97810.03;;;8.67;100.00
52319;BME280;38258;51.148;14.068;2023-04-29T02:38:16;97805.72;;;8.66;100.00
52319;BME280;38258;51.148;14.068;2023-04-29T02:40:44;97801.56;;;8.60;100.00
52319;BME280;38258;51.148;14.068;2023-04-29T02:43:13;97804.81;;;8.67;100.00
52319;BME280;38258;51.148;14.068;2023-04-29T02:45:39;97802.19;;;8.69;100.00
52319;BME280;38258;51.148;14.068;2023-04-29T02:48:06;97785.22;;;8.55;100.00
52319;BME280;38258;51.148;14.068;2023-04-29T02:50:33;97791.09;;;8.62;100.00
52319;BME280;38258;51.148;14.068;2023-04-29T02:53:00;97800.72;;;8.88;100.00
52319;BME280;38258;51.148;14.068;2023-04-29T02:55:27;97790.63;;;8.77;100.00
52319;BME280;38258;51.148;14.068;2023-04-29T02:57:57;97782.94;;;8.73;100.00
52319;BME280;38258;51.148;14.068;2023-04-29T03:00:25;97785.50;;;8.74;100.00
52319;BME280;38258;51.148;14.068;2023-04-29T03:02:58;97777.91;;;8.67;100.00
52319;BME280;38258;51.148;14.068;2023-04-29T03:05:26;97784.06;;;8.64;100.00
52319;BME280;38258;51.148;14.068;2023-04-29T03:07:53;97782.50;;;8.58;100.00
52319;BME280;38258;51.148;14.068;2023-04-29T03:10:20;97779.84;;;8.60;100.00
52319;BME280;38258;51.148;14.068;2023-04-29T03:12:47;97770.50;;;8.53;100.00
52319;BME280;38258;51.148;14.068;2023-04-29T03:15:14;97772.28;;;8.52;100.00
52319;BME280;38258;51.148;14.068;2023-04-29T03:17:43;97770.38;;;8.57;100.00
52319;BME280;38258;51.148;14.068;2023-04-29T03:20:12;97769.78;;;8.46;100.00
52319;BME280;38258;51.148;14.068;2023-04-29T03:22:38;97762.75;;;8.49;100.00
52319;BME280;38258;51.148;14.068;2023-04-29T03:25:06;97759.22;;;8.54;100.00
52319;BME280;38258;51.148;14.068;2023-04-29T03:27:36;97761.09;;;8.47;100.00
52319;BME280;38258;51.148;14.068;2023-04-29T03:30:04;97759.31;;;8.49;100.00
52319;BME280;38258;51.148;14.068;2023-04-29T03:32:30;97762.63;;;8.56;100.00
52319;BME280;38258;51.148;14.068;2023-04-29T03:35:00;97765.13;;;8.59;100.00
52319;BME280;38258;51.148;14.068;2023-04-29T03:37:43;97756.53;;;8.55;100.00
52319;BME280;38258;51.148;14.068;2023-04-29T03:40:20;97753.03;;;8.56;100.00
52319;BME280;38258;51.148;14.068;2023-04-29T03:42:49;97747.78;;;8.58;100.00
52319;BME280;38258;51.148;14.068;2023-04-29T03:45:16;97747.69;;;8.61;100.00
52319;BME280;38258;51.148;14.068;2023-04-29T03:47:43;97748.19;;;8.72;100.00
52319;BME280;38258;51.148;14.068;2023-04-29T03:50:11;97735.66;;;8.57;100.00
52319;BME280;38258;51.148;14.068;2023-04-29T03:52:39;97744.16;;;8.62;100.00
52319;BME280;38258;51.148;14.068;2023-04-29T03:55:12;97744.84;;;8.69;100.00
52319;BME280;38258;51.148;14.068;2023-04-29T03:57:39;97734.50;;;8.66;100.00
52319;BME280;38258;51.148;14.068;2023-04-29T04:00:07;97737.56;;;8.79;100.00
52319;BME280;38258;51.148;14.068;2023-04-29T04:02:42;97747.19;;;8.76;100.00
52319;BME280;38258;51.148;14.068;2023-04-29T04:05:11;97745.50;;;8.75;100.00
52319;BME280;38258;51.148;14.068;2023-04-29T04:07:40;97743.75;;;8.76;100.00
52319;BME280;38258;51.148;14.068;2023-04-29T04:10:32;97754.00;;;8.81;100.00
52319;BME280;38258;51.148;14.068;2023-04-29T04:13:01;97759.22;;;8.81;100.00
52319;BME280;38258;51.148;14.068;2023-04-29T04:15:28;97759.22;;;8.81;100.00
52319;BME280;38258;51.148;14.068;2023-04-29T04:17:55;97761.84;;;8.81;100.00
52319;BME280;38258;51.148;14.068;2023-04-29T04:20:23;97737.53;;;8.80;100.00
52319;BME280;38258;51.148;14.068;2023-04-29T04:22:50;97753.34;;;8.74;100.00
52319;BME280;38258;51.148;14.068;2023-04-29T04:25:23;97759.06;;;8.87;100.00
52319;BME280;38258;51.148;14.068;2023-04-29T04:27:51;97759.84;;;8.89;100.00
52319;BME280;38258;51.148;14.068;2023-04-29T04:30:41;97752.28;;;8.81;100.00
52319;BME280;38258;51.148;14.068;2023-04-29T04:33:08;97755.72;;;8.82;100.00
52319;BME280;38258;51.148;14.068;2023-04-29T04:35:37;97762.50;;;8.87;100.00
52319;BME280;38258;51.148;14.068;2023-04-29T04:38:04;97764.94;;;8.94;100.00
52319;BME280;38258;51.148;14.068;2023-04-29T04:40:31;97765.59;;;9.00;100.00
52319;BME280;38258;51.148;14.068;2023-04-29T04:43:15;97758.59;;;9.01;100.00
52319;BME280;38258;51.148;14.068;2023-04-29T04:45:42;97750.34;;;9.15;100.00
52319;BME280;38258;51.148;14.068;2023-04-29T04:48:09;97763.28;;;9.18;100.00
52319;BME280;38258;51.148;14.068;2023-04-29T04:50:38;97762.13;;;9.27;100.00
52319;BME280;38258;51.148;14.068;2023-04-29T04:53:05;97757.38;;;9.40;100.00
52319;BME280;38258;51.148;14.068;2023-04-29T04:55:42;97764.53;;;9.33;100.00
52319;BME280;38258;51.148;14.068;2023-04-29T04:58:09;97754.44;;;9.22;100.00
52319;BME280;38258;51.148;14.068;2023-04-29T05:00:36;97765.19;;;9.40;100.00
52319;BME280;38258;51.148;14.068;2023-04-29T05:03:03;97772.13;;;9.41;100.00
52319;BME280;38258;51.148;14.068;2023-04-29T05:05:32;97769.19;;;9.50;100.00
52319;BME280;38258;51.148;14.068;2023-04-29T05:08:00;97757.28;;;9.41;100.00
52319;BME280;38258;51.148;14.068;2023-04-29T05:10:35;97758.97;;;9.44;100.00
52319;BME280;38258;51.148;14.068;2023-04-29T05:13:01;97750.97;;;9.48;100.00
52319;BME280;38258;51.148;14.068;2023-04-29T05:15:28;97771.47;;;9.59;100.00
52319;BME280;38258;51.148;14.068;2023-04-29T05:17:57;97766.53;;;9.77;100.00
52319;BME280;38258;51.148;14.068;2023-04-29T05:20:24;97770.03;;;9.76;100.00
52319;BME280;38258;51.148;14.068;2023-04-29T05:22:50;97776.28;;;9.72;100.00
52319;BME280;38258;51.148;14.068;2023-04-29T05:25:19;97783.22;;;9.73;100.00
52319;BME280;38258;51.148;14.068;2023-04-29T05:27:45;97776.31;;;9.70;100.00
52319;BME280;38258;51.148;14.068;2023-04-29T05:30:15;97779.72;;;9.72;100.00
52319;BME280;38258;51.148;14.068;2023-04-29T05:32:42;97786.56;;;9.76;100.00
52319;BME280;38258;51.148;14.068;2023-04-29T05:35:13;97775.41;;;9.71;100.00
52319;BME280;38258;51.148;14.068;2023-04-29T05:37:39;97786.09;;;9.65;100.00
52319;BME280;38258;51.148;14.068;2023-04-29T05:40:23;97780.00;;;9.65;100.00
52319;BME280;38258;51.148;14.068;2023-04-29T05:42:55;97785.88;;;9.71;100.00
52319;BME280;38258;51.148;14.068;2023-04-29T05:45:21;97785.03;;;9.71;100.00
52319;BME280;38258;51.148;14.068;2023-04-29T05:47:48;97791.47;;;9.86;100.00
52319;BME280;38258;51.148;14.068;2023-04-29T05:50:15;97788.38;;;10.00;100.00
52319;BME280;38258;51.148;14.068;2023-04-29T05:52:42;97792.06;;;10.18;100.00
52319;BME280;38258;51.148;14.068;2023-04-29T05:55:08;97795.78;;;10.12;100.00
52319;BME280;38258;51.148;14.068;2023-04-29T05:57:36;97792.97;;;10.17;100.00
52319;BME280;38258;51.148;14.068;2023-04-29T06:00:04;97798.13;;;10.20;100.00
52319;BME280;38258;51.148;14.068;2023-04-29T06:02:39;97796.50;;;10.40;100.00
52319;BME280;38258;51.148;14.068;2023-04-29T06:05:09;97793.66;;;10.48;100.00
52319;BME280;38258;51.148;14.068;2023-04-29T06:08:01;97773.19;;;10.59;100.00
52319;BME280;38258;51.148;14.068;2023-04-29T06:10:42;97789.41;;;10.67;100.00
52319;BME280;38258;51.148;14.068;2023-04-29T06:13:10;97766.19;;;10.36;100.00
52319;BME280;38258;51.148;14.068;2023-04-29T06:15:37;97804.09;;;10.48;100.00
52319;BME280;38258;51.148;14.068;2023-04-29T06:18:03;97797.63;;;10.32;100.00
52319;BME280;38258;51.148;14.068;2023-04-29T06:20:31;97803.44;;;10.42;100.00
52319;BME280;38258;51.148;14.068;2023-04-29T06:22:58;97818.22;;;10.43;100.00
52319;BME280;38258;51.148;14.068;2023-04-29T06:25:24;97801.50;;;10.48;100.00
52319;BME280;38258;51.148;14.068;2023-04-29T06:27:53;97786.22;;;10.35;100.00
52319;BME280;38258;51.148;14.068;2023-04-29T06:30:24;97807.75;;;10.43;100.00
52319;BME280;38258;51.148;14.068;2023-04-29T06:32:51;97816.69;;;10.36;100.00
52319;BME280;38258;51.148;14.068;2023-04-29T06:35:18;97811.09;;;10.47;100.00
52319;BME280;38258;51.148;14.068;2023-04-29T06:38:03;97819.00;;;10.69;100.00
52319;BME280;38258;51.148;14.068;2023-04-29T06:40:44;97803.00;;;10.77;100.00
52319;BME280;38258;51.148;14.068;2023-04-29T06:43:31;97814.50;;;10.95;100.00
52319;BME280;38258;51.148;14.068;2023-04-29T06:46:15;97817.06;;;10.74;100.00
52319;BME280;38258;51.148;14.068;2023-04-29T06:48:54;97796.88;;;10.78;100.00
52319;BME280;38258;51.148;14.068;2023-04-29T06:51:21;97823.09;;;11.21;100.00
52319;BME280;38258;51.148;14.068;2023-04-29T06:53:49;97824.13;;;11.17;100.00
52319;BME280;38258;51.148;14.068;2023-04-29T06:56:18;97818.81;;;11.18;100.00
52319;BME280;38258;51.148;14.068;2023-04-29T06:58:46;97827.50;;;11.21;100.00
52319;BME280;38258;51.148;14.068;2023-04-29T07:01:12;97808.97;;;11.25;100.00
52319;BME280;38258;51.148;14.068;2023-04-29T07:03:40;97828.47;;;11.61;100.00
52319;BME280;38258;51.148;14.068;2023-04-29T07:06:07;97826.59;;;11.42;100.00
52319;BME280;38258;51.148;14.068;2023-04-29T07:08:34;97825.78;;;11.42;100.00
52319;BME280;38258;51.148;14.068;2023-04-29T07:11:00;97816.44;;;11.35;100.00
52319;BME280;38258;51.148;14.068;2023-04-29T07:13:27;97838.88;;;11.42;100.00
52319;BME280;38258;51.148;14.068;2023-04-29T07:15:53;97838.28;;;11.56;100.00
52319;BME280;38258;51.148;14.068;2023-04-29T07:18:20;97838.56;;;11.50;100.00
52319;BME280;38258;51.148;14.068;2023-04-29T07:20:48;97837.84;;;11.67;100.00
52319;BME280;38258;51.148;14.068;2023-04-29T07:23:17;97835.94;;;11.70;100.00
52319;BME280;38258;51.148;14.068;2023-04-29T07:25:44;97850.03;;;11.88;100.00
52319;BME280;38258;51.148;14.068;2023-04-29T07:28:11;97828.91;;;11.50;100.00
52319;BME280;38258;51.148;14.068;2023-04-29T07:30:37;97851.88;;;11.43;100.00
52319;BME280;38258;51.148;14.068;2023-04-29T07:33:04;97846.19;;;11.54;100.00
52319;BME280;38258;51.148;14.068;2023-04-29T07:35:30;97836.94;;;11.45;100.00
52319;BME280;38258;51.148;14.068;2023-04-29T07:37:58;97854.72;;;11.59;100.00
52319;BME280;38258;51.148;14.068;2023-04-29T07:40:25;97849.38;;;11.63;100.00
52319;BME280;38258;51.148;14.068;2023-04-29T07:42:56;97857.59;;;11.53;100.00
52319;BME280;38258;51.148;14.068;2023-04-29T07:45:22;97862.59;;;11.59;100.00
52319;BME280;38258;51.148;14.068;2023-04-29T07:47:49;97832.63;;;11.44;100.00
52319;BME280;38258;51.148;14.068;2023-04-29T07:50:15;97857.34;;;11.59;100.00
52319;BME280;38258;51.148;14.068;2023-04-29T07:52:42;97861.38;;;11.46;100.00
52319;BME280;38258;51.148;14.068;2023-04-29T07:55:10;97871.88;;;11.67;100.00
52319;BME280;38258;51.148;14.068;2023-04-29T07:57:36;97865.69;;;11.90;100.00
52319;BME280;38258;51.148;14.068;2023-04-29T08:00:04;97866.97;;;12.23;100.00
52319;BME280;38258;51.148;14.068;2023-04-29T08:02:40;97870.19;;;12.09;100.00
52319;BME280;38258;51.148;14.068;2023-04-29T08:05:08;97877.81;;;11.72;100.00
52319;BME280;38258;51.148;14.068;2023-04-29T08:07:34;97881.09;;;11.77;100.00
52319;BME280;38258;51.148;14.068;2023-04-29T08:10:01;97857.22;;;11.63;100.00
52319;BME280;38258;51.148;14.068;2023-04-29T08:12:29;97884.50;;;11.57;100.00
52319;BME280;38258;51.148;14.068;2023-04-29T08:14:56;97876.44;;;11.41;100.00
52319;BME280;38258;51.148;14.068;2023-04-29T08:17:22;97895.28;;;11.27;100.00
52319;BME280;38258;51.148;14.068;2023-04-29T08:19:49;97895.31;;;11.03;100.00
52319;BME280;38258;51.148;14.068;2023-04-29T08:22:16;97897.97;;;11.25;100.00
52319;BME280;38258;51.148;14.068;2023-04-29T08:24:42;97899.38;;;11.12;100.00
52319;BME280;38258;51.148;14.068;2023-04-29T08:27:09;97886.53;;;10.82;100.00
52319;BME280;38258;51.148;14.068;2023-04-29T08:29:37;97906.72;;;11.02;100.00
52319;BME280;38258;51.148;14.068;2023-04-29T08:32:04;97915.31;;;11.06;100.00
52319;BME280;38258;51.148;14.068;2023-04-29T08:34:30;97883.69;;;11.12;100.00
52319;BME280;38258;51.148;14.068;2023-04-29T08:36:57;97911.97;;;11.24;100.00
52319;BME280;38258;51.148;14.068;2023-04-29T08:39:24;97916.03;;;11.09;100.00
52319;BME280;38258;51.148;14.068;2023-04-29T08:41:50;97905.09;;;11.22;100.00
52319;BME280;38258;51.148;14.068;2023-04-29T08:44:18;97908.09;;;11.35;100.00
52319;BME280;38258;51.148;14.068;2023-04-29T08:46:47;97918.88;;;11.49;100.00
52319;BME280;38258;51.148;14.068;2023-04-29T08:49:13;97898.16;;;11.21;100.00
52319;BME280;38258;51.148;14.068;2023-04-29T08:51:40;97913.28;;;11.58;100.00
52319;BME280;38258;51.148;14.068;2023-04-29T08:54:07;97912.53;;;11.77;100.00
52319;BME280;38258;51.148;14.068;2023-04-29T08:56:33;97912.28;;;12.66;100.00
52319;BME280;38258;51.148;14.068;2023-04-29T08:59:01;97912.38;;;13.22;100.00
52319;BME280;38258;51.148;14.068;2023-04-29T09:01:29;97910.41;;;13.47;100.00
52319;BME280;38258;51.148;14.068;2023-04-29T09:04:06;97889.59;;;12.65;100.00
52319;BME280;38258;51.148;14.068;2023-04-29T09:06:35;97919.56;;;12.99;100.00
52319;BME280;38258;51.148;14.068;2023-04-29T09:09:02;97930.53;;;12.49;100.00
52319;BME280;38258;51.148;14.068;2023-04-29T09:11:29;97924.41;;;12.29;100.00
52319;BME280;38258;51.148;14.068;2023-04-29T09:13:58;97930.59;;;12.47;100.00
52319;BME280;38258;51.148;14.068;2023-04-29T09:16:24;97933.31;;;12.46;100.00
52319;BME280;38258;51.148;14.068;2023-04-29T09:18:51;97929.06;;;12.00;100.00
52319;BME280;38258;51.148;14.068;2023-04-29T09:21:21;97932.00;;;12.14;100.00
52319;BME280;38258;51.148;14.068;2023-04-29T09:23:50;97932.91;;;12.34;100.00
52319;BME280;38258;51.148;14.068;2023-04-29T09:26:17;97931.31;;;12.91;100.00
52319;BME280;38258;51.148;14.068;2023-04-29T09:28:44;97930.84;;;13.01;100.00
52319;BME280;38258;51.148;14.068;2023-04-29T09:31:12;97927.81;;;12.71;100.00
52319;BME280;38258;51.148;14.068;2023-04-29T09:33:49;97935.41;;;12.37;100.00
52319;BME280;38258;51.148;14.068;2023-04-29T09:36:35;97939.63;;;12.41;100.00
52319;BME280;38258;51.148;14.068;2023-04-29T09:39:02;97942.91;;;12.04;100.00
52319;BME280;38258;51.148;14.068;2023-04-29T09:41:30;97943.19;;;12.18;100.00
52319;BME280;38258;51.148;14.068;2023-04-29T09:44:02;97953.91;;;12.13;100.00
52319;BME280;38258;51.148;14.068;2023-04-29T09:46:29;97949.63;;;11.88;100.00
52319;BME280;38258;51.148;14.068;2023-04-29T09:48:58;97956.44;;;11.93;100.00
52319;BME280;38258;51.148;14.068;2023-04-29T09:51:25;97930.69;;;12.04;100.00
52319;BME280;38258;51.148;14.068;2023-04-29T09:53:53;97965.53;;;12.06;100.00
52319;BME280;38258;51.148;14.068;2023-04-29T09:56:19;97967.91;;;12.12;100.00
52319;BME280;38258;51.148;14.068;2023-04-29T09:58:46;97952.84;;;12.18;100.00
52319;BME280;38258;51.148;14.068;2023-04-29T10:01:13;97965.16;;;12.15;100.00
52319;BME280;38258;51.148;14.068;2023-04-29T10:03:44;97961.75;;;12.13;100.00
52319;BME280;38258;51.148;14.068;2023-04-29T10:06:11;97964.56;;;12.29;100.00
52319;BME280;38258;51.148;14.068;2023-04-29T10:08:38;97964.66;;;12.49;100.00
52319;BME280;38258;51.148;14.068;2023-04-29T10:11:09;97967.97;;;12.32;100.00
52319;BME280;38258;51.148;14.068;2023-04-29T10:13:37;97965.22;;;12.14;100.00
52319;BME280;38258;51.148;14.068;2023-04-29T10:16:17;97974.03;;;11.89;100.00
52319;BME280;38258;51.148;14.068;2023-04-29T10:18:50;97972.34;;;11.88;100.00
52319;BME280;38258;51.148;14.068;2023-04-29T10:21:20;97982.78;;;11.90;100.00
52319;BME280;38258;51.148;14.068;2023-04-29T10:23:47;97962.28;;;11.99;100.00
52319;BME280;38258;51.148;14.068;2023-04-29T10:26:17;97960.63;;;12.19;100.00
52319;BME280;38258;51.148;14.068;2023-04-29T10:28:46;97984.31;;;12.59;100.00
52319;BME280;38258;51.148;14.068;2023-04-29T10:31:16;97962.34;;;12.62;100.00
52319;BME280;38258;51.148;14.068;2023-04-29T10:33:44;97982.34;;;12.23;100.00
52319;BME280;38258;51.148;14.068;2023-04-29T10:36:11;97994.19;;;11.88;100.00
52319;BME280;38258;51.148;14.068;2023-04-29T10:38:41;97994.88;;;11.48;100.00
52319;BME280;38258;51.148;14.068;2023-04-29T10:41:18;98004.75;;;11.41;100.00
52319;BME280;38258;51.148;14.068;2023-04-29T10:43:47;98006.63;;;11.37;100.00
52319;BME280;38258;51.148;14.068;2023-04-29T10:46:18;98001.81;;;11.26;100.00
52319;BME280;38258;51.148;14.068;2023-04-29T10:48:45;98021.59;;;11.57;100.00
52319;BME280;38258;51.148;14.068;2023-04-29T10:51:12;98000.75;;;11.99;100.00
52319;BME280;38258;51.148;14.068;2023-04-29T10:53:56;97998.31;;;12.16;100.00
52319;BME280;38258;51.148;14.068;2023-04-29T10:56:34;98001.56;;;12.44;100.00
52319;BME280;38258;51.148;14.068;2023-04-29T10:59:01;97984.78;;;13.09;100.00
52319;BME280;38258;51.148;14.068;2023-04-29T11:01:41;97997.16;;;12.24;100.00
52319;BME280;38258;51.148;14.068;2023-04-29T11:04:07;98008.44;;;12.04;100.00
52319;BME280;38258;51.148;14.068;2023-04-29T11:06:40;98016.09;;;12.30;100.00
52319;BME280;38258;51.148;14.068;2023-04-29T11:09:09;98016.13;;;12.08;100.00
52319;BME280;38258;51.148;14.068;2023-04-29T11:11:44;98014.28;;;12.10;100.00
52319;BME280;38258;51.148;14.068;2023-04-29T11:14:12;98018.22;;;12.22;100.00
52319;BME280;38258;51.148;14.068;2023-04-29T11:16:46;98004.03;;;12.26;100.00
52319;BME280;38258;51.148;14.068;2023-04-29T11:19:14;98012.34;;;12.15;100.00
52319;BME280;38258;51.148;14.068;2023-04-29T11:21:41;98000.53;;;12.05;100.00
52319;BME280;38258;51.148;14.068;2023-04-29T11:24:07;98017.38;;;12.42;100.00
52319;BME280;38258;51.148;14.068;2023-04-29T11:26:34;98030.59;;;12.39;100.00
52319;BME280;38258;51.148;14.068;2023-04-29T11:29:03;98016.41;;;12.23;100.00
52319;BME280;38258;51.148;14.068;2023-04-29T11:31:30;98032.53;;;12.56;100.00
52319;BME280;38258;51.148;14.068;2023-04-29T11:33:57;98034.09;;;12.40;100.00
52319;BME280;38258;51.148;14.068;2023-04-29T11:36:24;98032.91;;;12.47;100.00
52319;BME280;38258;51.148;14.068;2023-04-29T11:38:52;98030.63;;;12.60;100.00
52319;BME280;38258;51.148;14.068;2023-04-29T11:41:19;98037.94;;;12.31;100.00
52319;BME280;38258;51.148;14.068;2023-04-29T11:43:46;98020.06;;;12.41;100.00
52319;BME280;38258;51.148;14.068;2023-04-29T11:46:14;98048.16;;;12.37;100.00
52319;BME280;38258;51.148;14.068;2023-04-29T11:48:48;98042.91;;;11.93;100.00
52319;BME280;38258;51.148;14.068;2023-04-29T11:51:15;98048.53;;;12.50;100.00
52319;BME280;38258;51.148;14.068;2023-04-29T11:53:42;98053.63;;;12.10;100.00
52319;BME280;38258;51.148;14.068;2023-04-29T11:56:09;98065.41;;;11.76;100.00
52319;BME280;38258;51.148;14.068;2023-04-29T11:58:36;98053.25;;;11.02;100.00
52319;BME280;38258;51.148;14.068;2023-04-29T12:01:03;98073.78;;;10.89;100.00
52319;BME280;38258;51.148;14.068;2023-04-29T12:03:32;98083.66;;;11.06;100.00
52319;BME280;38258;51.148;14.068;2023-04-29T12:06:01;98035.47;;;10.86;100.00
52319;BME280;38258;51.148;14.068;2023-04-29T12:08:29;98086.16;;;11.58;100.00
52319;BME280;38258;51.148;14.068;2023-04-29T12:10:58;98050.19;;;11.14;100.00
52319;BME280;38258;51.148;14.068;2023-04-29T12:13:27;98090.19;;;11.43;100.00
52319;BME280;38258;51.148;14.068;2023-04-29T12:15:55;98086.59;;;11.46;100.00
52319;BME280;38258;51.148;14.068;2023-04-29T12:18:22;98086.00;;;11.14;100.00
52319;BME280;38258;51.148;14.068;2023-04-29T12:20:50;98090.00;;;11.48;100.00
52319;BME280;38258;51.148;14.068;2023-04-29T12:23:18;98094.66;;;11.40;100.00
52319;BME280;38258;51.148;14.068;2023-04-29T12:25:48;98094.66;;;11.16;100.00
52319;BME280;38258;51.148;14.068;2023-04-29T12:28:15;98097.38;;;10.87;100.00
52319;BME280;38258;51.148;14.068;2023-04-29T12:30:42;98092.44;;;11.05;100.00
52319;BME280;38258;51.148;14.068;2023-04-29T12:33:09;98100.09;;;10.84;100.00
52319;BME280;38258;51.148;14.068;2023-04-29T12:35:36;98102.69;;;10.59;100.00
52319;BME280;38258;51.148;14.068;2023-04-29T12:38:04;98091.88;;;10.95;100.00
52319;BME280;38258;51.148;14.068;2023-04-29T12:40:31;98103.47;;;11.13;100.00
52319;BME280;38258;51.148;14.068;2023-04-29T12:43:06;98094.72;;;10.89;100.00
52319;BME280;38258;51.148;14.068;2023-04-29T12:45:33;98112.72;;;10.98;100.00
52319;BME280;38258;51.148;14.068;2023-04-29T12:48:00;98098.66;;;10.75;100.00
52319;BME280;38258;51.148;14.068;2023-04-29T12:50:29;98089.22;;;10.44;100.00
52319;BME280;38258;51.148;14.068;2023-04-29T12:52:57;98125.22;;;10.35;100.00
52319;BME280;38258;51.148;14.068;2023-04-29T12:55:24;98120.94;;;10.32;100.00